Tabor, Czech Republic
Current Conditions -  °F | °C
As of 5:00 PM on Wednesday 22 Oct 2014 (Local Time) from LKCV Reporting Station
Overcast Overcast  
Wind Chill: 41°   Ceiling: 2500
Heat Index: 46°   Visibility: 6mi
Dew Point: 45°   Wind: 12mph
Humidity: 93%   Direction: 270°W
Pressure: 29.71"   Gusts: NA
Location:  49.42°N, 14.66°E
Report Text: LKCV 221500Z 27010KT 9999 OVC025 08/07 Q1006 NOSIG
Loading
Personal Weather Stations






























Interactive Weather Map
Tropical Storm Tracking
New forecast layout! Learn more

10-Day Weather Forecast

Advertisements
Track Severe Weather on mobile